createdAt,value
2024-04-04T00:00:17.566Z,0
2024-04-04T00:01:18.406Z,0
2024-04-04T00:02:19.557Z,0
2024-04-04T00:03:19.486Z,0
2024-04-04T00:04:20.669Z,0
2024-04-04T00:05:20.386Z,0
2024-04-04T00:06:21.541Z,0
2024-04-04T00:07:21.463Z,0
2024-04-04T00:08:22.394Z,0
2024-04-04T00:09:23.306Z,0
2024-04-04T00:10:24.221Z,0
2024-04-04T00:11:24.748Z,0
2024-04-04T00:12:25.857Z,0
2024-04-04T00:13:26.555Z,0
2024-04-04T00:14:26.272Z,0
2024-04-04T00:15:27.233Z,0
2024-04-04T00:16:28.189Z,0
2024-04-04T00:17:29.149Z,0
2024-04-04T00:18:31.042Z,0
2024-04-04T00:19:30.546Z,0
2024-04-04T00:20:32.935Z,0
2024-04-04T00:21:31.240Z,0
2024-04-04T00:22:31.930Z,0
2024-04-04T00:23:32.830Z,0
2024-04-04T00:24:33.338Z,0
2024-04-04T00:25:34.264Z,0
2024-04-04T00:26:35.216Z,0
2024-04-04T00:27:34.942Z,0
2024-04-04T00:28:35.904Z,0
2024-04-04T00:29:36.428Z,0
2024-04-04T00:30:37.073Z,0
2024-04-04T00:31:38.092Z,0
2024-04-04T00:32:39.362Z,0
2024-04-04T00:33:39.284Z,0
2024-04-04T00:34:39.798Z,0
2024-04-04T00:35:40.154Z,0
2024-04-04T00:36:40.500Z,0
2024-04-04T00:37:41.395Z,0
2024-04-04T00:38:42.313Z,0
2024-04-04T00:39:43.214Z,0
2024-04-04T00:40:44.083Z,0
2024-04-04T00:41:44.635Z,0
2024-04-04T00:42:45.363Z,0
2024-04-04T00:43:46.474Z,0
2024-04-04T00:44:45.963Z,0
2024-04-04T00:45:46.930Z,0
2024-04-04T00:46:47.094Z,0
2024-04-04T00:47:47.244Z,0
2024-04-04T00:48:47.166Z,0
2024-04-04T00:49:48.070Z,0
2024-04-04T00:50:48.732Z,0
2024-04-04T00:51:49.323Z,0
2024-04-04T00:52:50.048Z,0
2024-04-04T00:53:50.620Z,0
2024-04-04T00:54:51.380Z,0
2024-04-04T00:55:52.344Z,0
2024-04-04T00:56:52.892Z,0
2024-04-04T00:57:53.607Z,0
2024-04-04T00:58:54.347Z,0
2024-04-04T00:59:55.476Z,0
2024-04-04T01:00:56.632Z,0
2024-04-04T01:01:56.924Z,0
2024-04-04T01:02:56.866Z,0
2024-04-04T01:03:57.706Z,0
2024-04-04T01:04:58.878Z,0
2024-04-04T01:05:58.867Z,0
2024-04-04T01:06:59.859Z,0
2024-04-04T01:08:00.571Z,0
2024-04-04T01:09:01.060Z,0
2024-04-04T01:10:02.042Z,0
2024-04-04T01:11:02.737Z,0
2024-04-04T01:12:03.894Z,0
2024-04-04T01:13:03.649Z,0
2024-04-04T01:14:04.387Z,0
2024-04-04T01:15:05.328Z,0
2024-04-04T01:16:06.221Z,0
2024-04-04T01:17:06.939Z,0
2024-04-04T01:18:07.884Z,0
2024-04-04T01:19:08.422Z,0
2024-04-04T01:20:09.201Z,0
2024-04-04T01:21:09.436Z,0
2024-04-04T01:22:09.751Z,0
2024-04-04T01:23:10.268Z,0
2024-04-04T01:24:10.773Z,0
2024-04-04T01:25:11.728Z,0
2024-04-04T01:26:12.454Z,0
2024-04-04T01:27:13.368Z,0
2024-04-04T01:28:13.511Z,0
2024-04-04T01:29:13.406Z,0
2024-04-04T01:30:14.589Z,0
2024-04-04T01:31:15.411Z,0
2024-04-04T01:32:16.174Z,0
2024-04-04T01:33:17.311Z,0
2024-04-04T01:34:17.030Z,0
2024-04-04T01:35:17.741Z,0
2024-04-04T01:36:18.649Z,0
2024-04-04T01:37:19.396Z,0
2024-04-04T01:38:20.099Z,0
2024-04-04T01:39:21.199Z,0
2024-04-04T01:40:20.882Z,0
2024-04-04T01:41:21.949Z,0
2024-04-04T01:42:22.449Z,0
2024-04-04T01:43:23.361Z,0
2024-04-04T01:44:24.514Z,0
2024-04-04T01:45:24.536Z,0
2024-04-04T01:46:25.289Z,0
2024-04-04T01:47:26.062Z,0
2024-04-04T01:48:27.079Z,0
2024-04-04T01:49:27.777Z,0
2024-04-04T01:50:28.670Z,0
2024-04-04T01:51:29.460Z,0
2024-04-04T01:52:30.162Z,0
2024-04-04T01:53:31.083Z,0
2024-04-04T01:54:32.027Z,0
2024-04-04T01:55:32.942Z,0
2024-04-04T01:56:33.869Z,0
2024-04-04T01:57:34.410Z,0
2024-04-04T01:58:35.349Z,0
2024-04-04T01:59:35.313Z,0
2024-04-04T02:00:35.669Z,0
2024-04-04T02:01:37.330Z,0
2024-04-04T02:02:37.856Z,0
2024-04-04T02:03:38.974Z,0
2024-04-04T02:04:39.740Z,0
2024-04-04T02:05:40.817Z,0
2024-04-04T02:06:41.327Z,0
2024-04-04T02:07:42.453Z,0
2024-04-04T02:08:42.962Z,0
2024-04-04T02:09:44.028Z,0
2024-04-04T02:10:44.747Z,0
2024-04-04T02:11:45.358Z,0
2024-04-04T02:12:46.063Z,0
2024-04-04T02:13:46.999Z,0
2024-04-04T02:14:47.916Z,0
2024-04-04T02:15:47.612Z,0
2024-04-04T02:16:48.710Z,0
2024-04-04T02:17:48.644Z,0
2024-04-04T02:18:49.391Z,0
2024-04-04T02:19:50.326Z,0
2024-04-04T02:20:50.730Z,0
2024-04-04T02:21:51.155Z,0
2024-04-04T02:22:51.443Z,0
2024-04-04T02:23:51.920Z,0
2024-04-04T02:24:52.467Z,0
2024-04-04T02:25:53.287Z,0
2024-04-04T02:26:54.391Z,0
2024-04-04T02:27:54.315Z,0
2024-04-04T02:28:55.114Z,0
2024-04-04T02:29:56.262Z,0
2024-04-04T02:30:57.233Z,0
2024-04-04T02:31:57.110Z,0
2024-04-04T02:32:57.849Z,0
2024-04-04T02:33:58.606Z,0
2024-04-04T02:34:59.172Z,0
2024-04-04T02:35:59.892Z,0
2024-04-04T02:37:01.041Z,0
2024-04-04T02:38:01.779Z,0
2024-04-04T02:39:02.690Z,0
2024-04-04T02:40:03.882Z,0
2024-04-04T02:41:03.769Z,0
2024-04-04T02:42:04.199Z,0
2024-04-04T02:43:05.225Z,0
2024-04-04T02:44:06.174Z,0
2024-04-04T02:45:06.895Z,0
2024-04-04T02:46:07.902Z,0
2024-04-04T02:47:09.026Z,0
2024-04-04T02:48:08.976Z,0
2024-04-04T02:49:10.254Z,0
2024-04-04T02:50:10.184Z,0
2024-04-04T02:51:10.518Z,0
2024-04-04T02:52:11.298Z,0
2024-04-04T02:53:12.010Z,0
2024-04-04T02:54:12.746Z,0
2024-04-04T02:55:14.300Z,0
2024-04-04T02:56:14.195Z,0
2024-04-04T02:57:15.003Z,0
2024-04-04T02:58:16.154Z,0
2024-04-04T02:59:15.865Z,0
2024-04-04T03:00:16.839Z,0
2024-04-04T03:01:16.593Z,0
2024-04-04T03:02:16.925Z,0
2024-04-04T03:03:17.395Z,0
2024-04-04T03:04:17.969Z,0
2024-04-04T03:05:18.576Z,0
2024-04-04T03:06:19.146Z,0
2024-04-04T03:07:19.864Z,0
2024-04-04T03:08:20.772Z,0
2024-04-04T03:09:21.312Z,0
2024-04-04T03:10:22.041Z,0
2024-04-04T03:11:23.271Z,0
2024-04-04T03:13:23.777Z,0
2024-04-04T03:14:24.690Z,0
2024-04-04T03:15:24.609Z,0
2024-04-04T03:16:25.138Z,0
2024-04-04T03:17:26.069Z,0
2024-04-04T03:18:27.211Z,0
2024-04-04T03:19:27.183Z,0
2024-04-04T03:20:28.106Z,0
2024-04-04T03:21:28.669Z,0
2024-04-04T03:22:29.393Z,0
2024-04-04T03:23:29.629Z,0
2024-04-04T03:24:30.768Z,0
2024-04-04T03:25:30.266Z,0
2024-04-04T03:26:30.777Z,0
2024-04-04T03:27:31.689Z,0
2024-04-04T03:28:32.447Z,0
2024-04-04T03:29:33.547Z,0
2024-04-04T03:30:34.500Z,0
2024-04-04T03:31:34.642Z,0
2024-04-04T03:32:35.290Z,0
2024-04-04T03:33:36.262Z,0
2024-04-04T03:34:37.301Z,0
2024-04-04T03:35:38.464Z,0
2024-04-04T03:36:38.196Z,0
2024-04-04T03:37:39.333Z,0
2024-04-04T03:38:39.039Z,0
2024-04-04T03:39:39.735Z,0
2024-04-04T03:40:40.525Z,0
2024-04-04T03:41:41.402Z,0
2024-04-04T03:43:41.939Z,0
2024-04-04T03:44:42.442Z,0
2024-04-04T03:45:43.399Z,0
2024-04-04T03:46:43.097Z,0
2024-04-04T03:47:44.269Z,0
2024-04-04T03:48:44.232Z,0
2024-04-04T03:49:45.356Z,0
2024-04-04T03:50:45.271Z,0
2024-04-04T03:51:45.772Z,0
2024-04-04T03:52:46.562Z,0
2024-04-04T03:53:46.465Z,0
2024-04-04T03:54:46.968Z,0
2024-04-04T03:55:47.693Z,0
2024-04-04T03:57:06.399Z,0
2024-04-04T03:57:49.611Z,0
2024-04-04T03:58:50.145Z,0
2024-04-04T03:59:51.265Z,0
2024-04-04T04:00:51.341Z,0
2024-04-04T04:01:52.223Z,0
2024-04-04T04:02:55.598Z,0
2024-04-04T04:03:53.748Z,0
2024-04-04T04:04:53.266Z,0
2024-04-04T04:05:54.153Z,0
2024-04-04T04:06:54.943Z,0
2024-04-04T04:07:55.908Z,0
2024-04-04T04:08:56.599Z,0
2024-04-04T04:09:57.334Z,0
2024-04-04T04:10:57.849Z,0
2024-04-04T04:11:58.554Z,0
2024-04-04T04:13:02.166Z,0
2024-04-04T04:13:59.690Z,0
2024-04-04T04:15:00.598Z,0
2024-04-04T04:16:00.804Z,0
2024-04-04T04:17:00.509Z,0
2024-04-04T04:19:02.047Z,0
2024-04-04T04:20:02.772Z,0
2024-04-04T04:21:03.491Z,0
2024-04-04T04:22:04.291Z,0
2024-04-04T04:23:04.337Z,0
2024-04-04T04:24:05.278Z,0
2024-04-04T04:25:06.069Z,0
2024-04-04T04:26:07.210Z,0
2024-04-04T04:27:06.888Z,0
2024-04-04T04:28:07.671Z,0
2024-04-04T04:29:08.556Z,0
2024-04-04T04:30:09.505Z,0
2024-04-04T04:31:10.251Z,0
2024-04-04T04:32:10.975Z,0
2024-04-04T04:33:11.583Z,0
2024-04-04T04:34:12.673Z,0
2024-04-04T04:35:15.246Z,0
2024-04-04T04:36:14.166Z,0
2024-04-04T04:37:15.205Z,0
2024-04-04T04:38:16.351Z,0
2024-04-04T04:39:16.190Z,0
2024-04-04T04:40:17.268Z,0
2024-04-04T04:41:18.218Z,0
2024-04-04T04:42:18.742Z,0
2024-04-04T04:43:19.440Z,0
2024-04-04T04:44:19.335Z,0
2024-04-04T04:45:20.233Z,0
2024-04-04T04:46:21.170Z,0
2024-04-04T04:47:21.912Z,0
2024-04-04T04:48:22.864Z,0
2024-04-04T04:49:24.041Z,0
2024-04-04T04:50:23.990Z,0
2024-04-04T04:51:24.761Z,0
2024-04-04T04:52:25.854Z,0
2024-04-04T04:53:26.777Z,0
2024-04-04T04:54:26.678Z,5.63
2024-04-04T04:55:27.382Z,5.63
2024-04-04T04:56:28.102Z,5.63
2024-04-04T04:57:28.968Z,5.63
2024-04-04T04:58:29.710Z,5.63
2024-04-04T04:59:30.632Z,5.63
2024-04-04T05:00:31.414Z,5.63
2024-04-04T05:01:32.540Z,5.63
2024-04-04T05:02:32.658Z,5.63
2024-04-04T05:03:32.759Z,5.63
2024-04-04T05:04:33.676Z,5.63
2024-04-04T05:05:34.853Z,11.25
2024-04-04T05:06:35.364Z,11.25
2024-04-04T05:07:36.291Z,11.25
2024-04-04T05:08:35.996Z,11.25
2024-04-04T05:09:36.893Z,11.25
2024-04-04T05:10:37.981Z,11.25
2024-04-04T05:11:38.893Z,11.25
2024-04-04T05:12:39.776Z,11.25
2024-04-04T05:13:40.592Z,11.25
2024-04-04T05:14:41.342Z,16.88
2024-04-04T05:15:41.638Z,16.88
2024-04-04T05:16:42.381Z,16.88
2024-04-04T05:17:42.732Z,16.88
2024-04-04T05:18:43.839Z,16.88
2024-04-04T05:19:43.757Z,16.88
2024-04-04T05:20:44.934Z,22.5
2024-04-04T05:21:45.063Z,22.5
2024-04-04T05:22:45.177Z,22.5
2024-04-04T05:24:45.586Z,22.5
2024-04-04T05:25:46.134Z,22.5
2024-04-04T05:26:46.636Z,28.13
2024-04-04T05:27:47.145Z,28.13
2024-04-04T05:28:48.093Z,33.75
2024-04-04T05:29:49.007Z,33.75
2024-04-04T05:30:49.746Z,33.75
2024-04-04T05:31:50.657Z,39.38
2024-04-04T05:32:50.230Z,39.38
2024-04-04T05:33:50.852Z,39.38
2024-04-04T05:34:52.101Z,39.38
2024-04-04T05:35:52.804Z,39.38
2024-04-04T05:36:52.375Z,39.38
2024-04-04T05:37:53.354Z,45
2024-04-04T05:38:54.455Z,45
2024-04-04T05:39:55.777Z,45
2024-04-04T05:40:54.477Z,45
2024-04-04T05:41:55.411Z,45
2024-04-04T05:42:56.367Z,45
2024-04-04T05:43:56.694Z,45
2024-04-04T05:44:57.874Z,56.25
2024-04-04T05:45:58.247Z,50.63
2024-04-04T05:46:58.858Z,50.63
2024-04-04T05:47:59.602Z,50.63
2024-04-04T05:49:00.396Z,50.63
2024-04-04T05:50:01.430Z,56.25
2024-04-04T05:51:02.581Z,56.25
2024-04-04T05:52:02.798Z,61.88
2024-04-04T05:53:03.131Z,61.88
2024-04-04T05:54:03.632Z,67.5
2024-04-04T05:55:04.030Z,67.5
2024-04-04T05:56:04.974Z,73.13
2024-04-04T05:57:05.899Z,73.13
2024-04-04T05:58:06.682Z,61.88
2024-04-04T05:59:07.591Z,56.25
2024-04-04T06:00:08.519Z,56.25
2024-04-04T06:01:08.433Z,56.25
2024-04-04T06:02:09.138Z,61.88
2024-04-04T06:03:09.652Z,61.88
2024-04-04T06:04:10.425Z,61.88
2024-04-04T06:05:11.539Z,61.88
2024-04-04T06:06:11.471Z,73.13
2024-04-04T06:07:12.324Z,61.88
2024-04-04T06:08:12.930Z,84.38
2024-04-04T06:09:15.454Z,84.38
2024-04-04T06:10:14.331Z,90
2024-04-04T06:11:15.518Z,90
2024-04-04T06:12:15.428Z,95.63
2024-04-04T06:13:16.770Z,95.63
2024-04-04T06:14:16.057Z,101.25
2024-04-04T06:15:16.802Z,101.25
2024-04-04T06:16:17.903Z,106.88
2024-04-04T06:17:18.013Z,106.88
2024-04-04T06:18:18.814Z,112.5
2024-04-04T06:19:21.437Z,118.13
2024-04-04T06:20:20.383Z,123.75
2024-04-04T06:21:20.317Z,135
2024-04-04T06:22:20.869Z,185.63
2024-04-04T06:23:21.599Z,331.88
2024-04-04T06:24:22.069Z,292.5
2024-04-04T06:25:22.827Z,714.38
2024-04-04T06:26:23.191Z,1209.38
2024-04-04T06:27:24.088Z,675
2024-04-04T06:28:24.788Z,630
2024-04-04T06:29:25.676Z,916.88
2024-04-04T06:30:26.198Z,916.88
2024-04-04T06:31:26.911Z,759.38
2024-04-04T06:32:28.059Z,523.13
2024-04-04T06:33:27.812Z,450
2024-04-04T06:34:28.700Z,421.88
2024-04-04T06:35:29.640Z,506.25
2024-04-04T06:36:33.844Z,978.75
2024-04-04T06:37:30.358Z,1237.5
2024-04-04T06:38:31.299Z,967.5
2024-04-04T06:39:32.198Z,680.63
2024-04-04T06:40:33.125Z,489.38
2024-04-04T06:41:32.831Z,669.38
2024-04-04T06:42:35.564Z,748.13
2024-04-04T06:43:34.516Z,601.88
2024-04-04T06:44:35.336Z,562.5
2024-04-04T06:45:35.571Z,495
2024-04-04T06:46:35.599Z,348.75
2024-04-04T06:47:36.613Z,365.63
2024-04-04T06:48:39.092Z,472.5
2024-04-04T06:49:37.634Z,658.13
2024-04-04T06:50:38.762Z,911.25
2024-04-04T06:51:38.908Z,1051.88
2024-04-04T06:52:38.813Z,781.88
2024-04-04T06:53:39.151Z,669.38
2024-04-04T06:54:39.836Z,663.75
2024-04-04T06:55:40.418Z,343.13
2024-04-04T06:56:41.375Z,264.38
2024-04-04T06:57:42.101Z,180
2024-04-04T06:58:42.855Z,168.75
2024-04-04T06:59:43.983Z,225
2024-04-04T07:00:44.784Z,241.88
2024-04-04T07:01:49.609Z,196.88
2024-04-04T07:02:46.742Z,213.75
2024-04-04T07:03:46.475Z,230.63
2024-04-04T07:04:47.399Z,213.75
2024-04-04T07:05:47.451Z,196.88
2024-04-04T07:06:47.995Z,163.13
2024-04-04T07:07:48.403Z,219.38
2024-04-04T07:08:49.182Z,258.75
2024-04-04T07:09:49.487Z,163.13
2024-04-04T07:10:53.890Z,146.25
2024-04-04T07:11:50.675Z,135
2024-04-04T07:12:51.425Z,129.38
2024-04-04T07:13:52.179Z,135
2024-04-04T07:14:53.025Z,129.38
2024-04-04T07:15:53.946Z,135
2024-04-04T07:16:54.667Z,118.13
2024-04-04T07:17:55.702Z,118.13
2024-04-04T07:18:55.792Z,135
2024-04-04T07:19:56.554Z,157.5
2024-04-04T07:20:57.323Z,135
2024-04-04T07:21:58.094Z,118.13
2024-04-04T07:22:59.205Z,112.5
2024-04-04T07:24:00.147Z,112.5
2024-04-04T07:25:00.821Z,118.13
2024-04-04T07:26:01.560Z,146.25
2024-04-04T07:27:02.698Z,174.38
2024-04-04T07:28:03.641Z,196.88
2024-04-04T07:29:05.466Z,253.13
2024-04-04T07:30:04.175Z,241.88
2024-04-04T07:31:05.140Z,247.5
2024-04-04T07:32:06.131Z,241.88
2024-04-04T07:33:07.084Z,281.25
2024-04-04T07:34:07.011Z,320.63
2024-04-04T07:35:09.505Z,427.5
2024-04-04T07:36:08.491Z,343.13
2024-04-04T07:37:09.436Z,286.88
2024-04-04T07:38:10.362Z,247.5
2024-04-04T07:39:11.525Z,236.25
2024-04-04T07:40:12.338Z,236.25
2024-04-04T07:41:13.332Z,230.63
2024-04-04T07:42:13.118Z,286.88
2024-04-04T07:43:13.939Z,354.38
2024-04-04T07:44:14.897Z,427.5
2024-04-04T07:45:15.596Z,444.38
2024-04-04T07:46:16.490Z,388.13
2024-04-04T07:47:17.031Z,309.38
2024-04-04T07:48:18.179Z,208.13
2024-04-04T07:49:18.407Z,196.88
2024-04-04T07:50:19.178Z,196.88
2024-04-04T07:51:19.900Z,191.25
2024-04-04T07:52:20.698Z,185.63
2024-04-04T07:53:21.655Z,191.25
2024-04-04T07:54:22.427Z,185.63
2024-04-04T07:55:23.375Z,185.63
2024-04-04T07:56:24.285Z,196.88
2024-04-04T07:57:26.623Z,219.38
2024-04-04T07:58:25.368Z,230.63
2024-04-04T07:59:25.895Z,298.13
2024-04-04T08:00:26.607Z,281.25
2024-04-04T08:01:27.179Z,281.25
2024-04-04T08:02:27.973Z,360
2024-04-04T08:03:28.717Z,230.63
2024-04-04T08:04:29.825Z,528.75
2024-04-04T08:05:30.888Z,354.38
2024-04-04T08:06:30.873Z,843.75
2024-04-04T08:07:31.825Z,292.5
2024-04-04T08:08:32.449Z,270
2024-04-04T08:09:33.522Z,928.13
2024-04-04T08:10:34.953Z,331.88
2024-04-04T08:11:34.522Z,832.5
2024-04-04T08:12:35.066Z,1276.88
2024-04-04T08:13:35.780Z,815.63
2024-04-04T08:14:36.365Z,939.38
2024-04-04T08:15:37.495Z,748.13
2024-04-04T08:16:37.756Z,382.5
2024-04-04T08:17:38.347Z,455.63
2024-04-04T08:18:40.782Z,680.63
2024-04-04T08:19:39.641Z,562.5
2024-04-04T08:20:40.827Z,545.63
2024-04-04T08:21:41.829Z,264.38
2024-04-04T08:22:41.969Z,360
2024-04-04T08:23:41.893Z,241.88
2024-04-04T08:24:42.432Z,371.25
2024-04-04T08:25:43.976Z,264.38
2024-04-04T08:26:43.900Z,180
2024-04-04T08:27:44.650Z,196.88
2024-04-04T08:28:45.571Z,174.38
2024-04-04T08:29:46.294Z,174.38
2024-04-04T08:30:46.990Z,219.38
2024-04-04T08:31:47.973Z,270
2024-04-04T08:32:48.989Z,506.25
2024-04-04T08:33:49.740Z,315
2024-04-04T08:34:50.577Z,393.75
2024-04-04T08:35:51.462Z,376.88
2024-04-04T08:36:52.718Z,298.13
2024-04-04T08:37:52.642Z,388.13
2024-04-04T08:38:53.583Z,309.38
2024-04-04T08:39:54.382Z,421.88
2024-04-04T08:40:55.158Z,421.88
2024-04-04T08:41:56.306Z,393.75
2024-04-04T08:42:56.024Z,461.25
2024-04-04T08:43:56.944Z,320.63
2024-04-04T08:44:57.903Z,264.38
2024-04-04T08:45:57.943Z,393.75
2024-04-04T08:46:58.925Z,247.5
2024-04-04T08:47:59.624Z,433.13
2024-04-04T08:49:00.419Z,1035
2024-04-04T08:50:01.469Z,556.88
2024-04-04T08:51:06.217Z,185.63
2024-04-04T08:52:03.107Z,196.88
2024-04-04T08:53:04.031Z,191.25
2024-04-04T08:54:04.915Z,202.5
2024-04-04T08:55:05.767Z,213.75
2024-04-04T08:56:06.180Z,230.63
2024-04-04T08:57:06.934Z,196.88
2024-04-04T08:58:08.222Z,180
2024-04-04T08:59:08.788Z,191.25
2024-04-04T09:00:09.924Z,196.88
2024-04-04T09:01:15.039Z,208.13
2024-04-04T09:02:10.492Z,213.75
2024-04-04T09:03:11.394Z,213.75
2024-04-04T09:04:12.465Z,219.38
2024-04-04T09:05:13.439Z,241.88
2024-04-04T09:06:14.099Z,258.75
2024-04-04T09:07:15.186Z,354.38
2024-04-04T09:08:18.847Z,315
2024-04-04T09:09:16.823Z,371.25
2024-04-04T09:10:16.921Z,354.38
2024-04-04T09:11:16.669Z,365.63
2024-04-04T09:12:17.184Z,360
2024-04-04T09:13:18.899Z,331.88
2024-04-04T09:14:18.836Z,298.13
2024-04-04T09:15:19.781Z,360
2024-04-04T09:16:20.555Z,281.25
2024-04-04T09:17:21.307Z,438.75
2024-04-04T09:18:21.839Z,303.75
2024-04-04T09:19:22.916Z,275.63
2024-04-04T09:20:24.131Z,343.13
2024-04-04T09:21:24.089Z,309.38
2024-04-04T09:22:25.303Z,315
2024-04-04T09:23:25.457Z,337.5
2024-04-04T09:24:25.439Z,354.38
2024-04-04T09:25:28.400Z,303.75
2024-04-04T09:26:26.774Z,303.75
2024-04-04T09:27:27.703Z,315
2024-04-04T09:28:28.456Z,326.25
2024-04-04T09:29:29.198Z,371.25
2024-04-04T09:30:30.154Z,410.63
2024-04-04T09:31:30.855Z,354.38
2024-04-04T09:32:32.002Z,382.5
2024-04-04T09:33:31.752Z,241.88
2024-04-04T09:34:32.519Z,230.63
2024-04-04T09:35:32.815Z,236.25
2024-04-04T09:36:33.683Z,320.63
2024-04-04T09:37:34.850Z,365.63
2024-04-04T09:38:35.004Z,365.63
2024-04-04T09:39:34.910Z,326.25
2024-04-04T09:40:35.756Z,343.13
2024-04-04T09:41:36.507Z,343.13
2024-04-04T09:42:37.857Z,354.38
2024-04-04T09:43:38.021Z,298.13
2024-04-04T09:44:38.609Z,253.13
2024-04-04T09:45:39.762Z,236.25
2024-04-04T09:46:40.163Z,270
2024-04-04T09:47:40.797Z,298.13
2024-04-04T09:48:48.414Z,337.5
2024-04-04T09:49:42.365Z,315
2024-04-04T09:50:43.539Z,292.5
2024-04-04T09:51:44.350Z,292.5
2024-04-04T09:52:44.904Z,286.88
2024-04-04T09:53:46.036Z,275.63
2024-04-04T09:54:46.072Z,281.25
2024-04-04T09:55:47.102Z,264.38
2024-04-04T09:56:47.514Z,253.13
2024-04-04T09:57:48.266Z,241.88
2024-04-04T09:58:49.212Z,236.25
2024-04-04T09:59:50.404Z,225
2024-04-04T10:00:50.278Z,219.38
2024-04-04T10:01:51.003Z,213.75
2024-04-04T10:02:51.778Z,219.38
2024-04-04T10:03:54.151Z,213.75
2024-04-04T10:04:52.918Z,208.13
2024-04-04T10:05:53.839Z,208.13
2024-04-04T10:06:53.895Z,213.75
2024-04-04T10:07:55.056Z,219.38
2024-04-04T10:08:54.965Z,225
2024-04-04T10:09:55.710Z,230.63
2024-04-04T10:10:57.117Z,225
2024-04-04T10:11:57.047Z,225
2024-04-04T10:12:58.196Z,236.25
2024-04-04T10:13:58.089Z,225
2024-04-04T10:14:59.094Z,225
2024-04-04T10:15:59.909Z,219.38
2024-04-04T10:17:00.560Z,225
2024-04-04T10:18:01.147Z,225
2024-04-04T10:19:01.911Z,225
2024-04-04T10:20:02.625Z,219.38
2024-04-04T10:21:03.791Z,225
2024-04-04T10:22:03.735Z,230.63
2024-04-04T10:23:05.573Z,253.13
2024-04-04T10:24:05.563Z,258.75
2024-04-04T10:25:06.153Z,225
2024-04-04T10:26:07.074Z,241.88
2024-04-04T10:27:07.858Z,230.63
2024-04-04T10:28:07.790Z,219.38
2024-04-04T10:29:30.826Z,213.75
2024-04-04T10:31:09.566Z,230.63
2024-04-04T10:32:10.514Z,219.38
2024-04-04T10:33:11.711Z,241.88
2024-04-04T10:34:13.912Z,213.75
2024-04-04T10:35:13.243Z,191.25
2024-04-04T10:36:14.187Z,185.63
2024-04-04T10:37:15.164Z,185.63
2024-04-04T10:38:14.999Z,180
2024-04-04T10:39:15.991Z,174.38
2024-04-04T10:40:17.090Z,174.38
2024-04-04T10:41:17.859Z,163.13
2024-04-04T10:42:18.818Z,146.25
2024-04-04T10:43:19.642Z,140.63
2024-04-04T10:44:20.772Z,129.38
2024-04-04T10:45:20.790Z,129.38
2024-04-04T10:46:22.236Z,118.13
2024-04-04T10:47:21.614Z,118.13
2024-04-04T10:48:22.377Z,118.13
2024-04-04T10:49:23.736Z,118.13
2024-04-04T10:50:23.732Z,118.13
2024-04-04T10:51:24.656Z,118.13
2024-04-04T10:52:27.937Z,118.13
2024-04-04T10:53:26.100Z,118.13
2024-04-04T10:54:26.090Z,118.13
2024-04-04T10:55:27.143Z,112.5
2024-04-04T10:56:28.097Z,112.5
2024-04-04T10:57:28.710Z,106.88
2024-04-04T10:58:29.504Z,112.5
2024-04-04T10:59:30.222Z,106.88
2024-04-04T11:00:30.616Z,101.25
2024-04-04T11:01:31.590Z,101.25
2024-04-04T11:02:32.478Z,95.63
2024-04-04T11:03:33.453Z,95.63
2024-04-04T11:04:33.974Z,95.63
2024-04-04T11:05:35.178Z,95.63
2024-04-04T11:06:35.909Z,95.63
2024-04-04T11:07:36.787Z,95.63
2024-04-04T11:08:38.072Z,95.63
2024-04-04T11:09:37.999Z,101.25
2024-04-04T11:10:38.715Z,101.25
2024-04-04T11:11:39.667Z,112.5
2024-04-04T11:12:40.410Z,106.88
2024-04-04T11:13:41.149Z,106.88
2024-04-04T11:14:41.675Z,106.88
2024-04-04T11:15:42.504Z,101.25
2024-04-04T11:16:43.430Z,101.25
2024-04-04T11:17:44.360Z,101.25
2024-04-04T11:18:44.076Z,101.25
2024-04-04T11:19:44.820Z,101.25
2024-04-04T11:20:45.950Z,101.25
2024-04-04T11:21:45.861Z,106.88
2024-04-04T11:22:46.856Z,106.88
2024-04-04T11:23:47.988Z,106.88
2024-04-04T11:24:47.946Z,112.5
2024-04-04T11:25:48.852Z,112.5
2024-04-04T11:26:48.398Z,112.5
2024-04-04T11:27:49.201Z,106.88
2024-04-04T11:29:08.366Z,106.88
2024-04-04T11:30:51.931Z,101.25
2024-04-04T11:31:51.176Z,101.25
2024-04-04T11:32:52.204Z,101.25
2024-04-04T11:33:53.139Z,95.63
2024-04-04T11:34:53.867Z,95.63
2024-04-04T11:35:54.603Z,90
2024-04-04T11:36:58.038Z,90
2024-04-04T11:37:55.259Z,90
2024-04-04T11:38:56.225Z,90
2024-04-04T11:39:56.459Z,90
2024-04-04T11:40:56.583Z,90
2024-04-04T11:41:56.331Z,90
2024-04-04T11:42:57.903Z,90
2024-04-04T11:43:57.850Z,84.38
2024-04-04T11:44:58.816Z,84.38
2024-04-04T11:45:59.757Z,84.38
2024-04-04T11:47:00.713Z,84.38
2024-04-04T11:48:00.751Z,90
2024-04-04T11:49:04.454Z,90
2024-04-04T11:50:02.194Z,95.63
2024-04-04T11:51:03.018Z,101.25
2024-04-04T11:52:03.735Z,106.88
2024-04-04T11:53:04.663Z,118.13
2024-04-04T11:54:05.804Z,123.75
2024-04-04T11:55:05.587Z,129.38
2024-04-04T11:56:06.128Z,135
2024-04-04T11:57:07.321Z,135
2024-04-04T11:58:07.342Z,151.88
2024-04-04T11:59:07.662Z,146.25
2024-04-04T12:00:08.625Z,157.5
2024-04-04T12:01:09.149Z,163.13
2024-04-04T12:02:09.889Z,191.25
2024-04-04T12:03:10.387Z,196.88
2024-04-04T12:04:11.187Z,202.5
2024-04-04T12:05:12.147Z,230.63
2024-04-04T12:06:12.723Z,241.88
2024-04-04T12:07:13.523Z,253.13
2024-04-04T12:08:33.563Z,286.88
2024-04-04T12:09:14.310Z,270
2024-04-04T12:10:15.324Z,247.5
2024-04-04T12:11:16.299Z,236.25
2024-04-04T12:12:17.308Z,230.63
2024-04-04T12:13:17.724Z,213.75
2024-04-04T12:14:18.700Z,196.88
2024-04-04T12:15:19.701Z,168.75
2024-04-04T12:16:19.752Z,146.25
2024-04-04T12:17:20.646Z,140.63
2024-04-04T12:18:21.437Z,135
2024-04-04T12:19:22.686Z,140.63
2024-04-04T12:20:22.474Z,140.63
2024-04-04T12:21:23.414Z,140.63
2024-04-04T12:22:24.802Z,151.88
2024-04-04T12:23:24.323Z,168.75
2024-04-04T12:24:25.535Z,185.63
2024-04-04T12:25:25.744Z,196.88
2024-04-04T12:26:25.471Z,213.75
2024-04-04T12:27:26.375Z,225
2024-04-04T12:28:26.705Z,219.38
2024-04-04T12:29:27.457Z,236.25
2024-04-04T12:30:28.335Z,309.38
2024-04-04T12:31:29.593Z,371.25
2024-04-04T12:32:29.548Z,315
2024-04-04T12:33:30.270Z,331.88
2024-04-04T12:34:30.853Z,303.75
2024-04-04T12:35:32.194Z,388.13
2024-04-04T12:36:33.226Z,427.5
2024-04-04T12:37:34.158Z,320.63
2024-04-04T12:38:34.600Z,315
2024-04-04T12:39:35.387Z,365.63
2024-04-04T12:40:36.421Z,365.63
2024-04-04T12:41:37.403Z,382.5
2024-04-04T12:42:38.130Z,286.88
2024-04-04T12:43:38.938Z,298.13
2024-04-04T12:44:40.091Z,264.38
2024-04-04T12:45:40.958Z,213.75
2024-04-04T12:46:41.309Z,230.63
2024-04-04T12:47:42.092Z,270
2024-04-04T12:48:42.764Z,286.88
2024-04-04T12:49:43.372Z,219.38
2024-04-04T12:50:44.275Z,286.88
2024-04-04T12:51:45.197Z,309.38
2024-04-04T12:52:46.137Z,303.75
2024-04-04T12:53:47.167Z,281.25
2024-04-04T12:54:48.009Z,270
2024-04-04T12:55:49.225Z,230.63
2024-04-04T12:56:49.390Z,230.63
2024-04-04T12:57:49.340Z,219.38
2024-04-04T12:58:50.214Z,219.38
2024-04-04T12:59:51.377Z,191.25
2024-04-04T13:00:51.576Z,191.25
2024-04-04T13:01:51.491Z,213.75
2024-04-04T13:02:52.596Z,213.75
2024-04-04T13:03:52.651Z,196.88
2024-04-04T13:04:53.587Z,196.88
2024-04-04T13:05:54.102Z,180
2024-04-04T13:06:55.062Z,163.13
2024-04-04T13:07:55.806Z,151.88
2024-04-04T13:08:56.731Z,146.25
2024-04-04T13:09:56.733Z,146.25
2024-04-04T13:10:57.952Z,146.25
2024-04-04T13:11:58.491Z,135
2024-04-04T13:13:00.809Z,129.38
2024-04-04T13:13:59.704Z,118.13
2024-04-04T13:14:59.924Z,112.5
2024-04-04T13:16:00.940Z,112.5
2024-04-04T13:17:00.977Z,101.25
2024-04-04T13:18:01.851Z,95.63
2024-04-04T13:19:03.507Z,90
2024-04-04T13:20:03.026Z,78.75
2024-04-04T13:21:03.575Z,73.13
2024-04-04T13:22:04.541Z,73.13
2024-04-04T13:23:04.696Z,67.5
2024-04-04T13:24:04.619Z,67.5
2024-04-04T13:25:05.844Z,61.88
2024-04-04T13:26:05.593Z,61.88
2024-04-04T13:27:06.712Z,61.88
2024-04-04T13:28:06.433Z,61.88
2024-04-04T13:29:06.792Z,56.25
2024-04-04T13:30:07.707Z,56.25
2024-04-04T13:31:09.216Z,56.25
2024-04-04T13:32:07.736Z,56.25
2024-04-04T13:33:08.864Z,56.25
2024-04-04T13:34:09.642Z,56.25
2024-04-04T13:35:10.619Z,56.25
2024-04-04T13:36:10.522Z,56.25
2024-04-04T13:37:11.712Z,56.25
2024-04-04T13:38:11.926Z,61.88
2024-04-04T13:39:14.107Z,67.5
2024-04-04T13:40:13.110Z,67.5